Weather at Rogue Valley International Medford Airport

Public forecast

Using degrees Fahrenheit for public forecast. Weather courtesy of forecast.io.

Current aviation weather report (METAR) for Rogue Valley International Medford Airport

Retrieved 2022/07/04 14:53 UTC (20 minutes ago):

KMFR 041453Z 00000KT 10SM SCT070 BKN110 17/12 A2993 RMK AO2 SLP128 T01720122 51001

Aviation forecast (TAF) for Rogue Valley International Medford Airport

Retrieved 2022/07/04 12:42 UTC (3 hours ago):

TAF KMFR 041139Z 0412/0512 00000KT P6SM OVC080 FM041800 35005KT P6SM VCSH SCT050 BKN100 FM042200 31008KT P6SM VCSH FEW050 OVC080 FM050300 VRB03KT P6SM VCSH BKN060